Time;durP1;ratioP1;P1;durP2;ratioP2;P2;SDS_P1;SDS_P2;PMS_P1;PMS_P2;Temp;Humidity;BMP_temperature;BMP_pressure;BME280_temperature;BME280_humidity;BME280_pressure;Samples;Min_cycle;Max_cycle;Signal;HPM_P1;HPM_P2
2022/02/03 00:00:39;;;;;;;12.95;9.85;;;;;;;14.17;46.26;99429.20;1683307;84;20994;-58
2022/02/03 00:08:20;;;;;;;14.58;10.40;;;;;;;14.09;46.14;99413.30;1690293;84;21007;-71
2022/02/03 00:30:35;;;;;;;13.05;9.18;;;;;;;13.87;46.44;99418.27;1654958;86;22363;-60
2022/02/03 00:33:17;;;;;;;14.03;10.58;;;;;;;14.09;46.25;99401.50;1686669;83;21015;-60
2022/02/03 00:35:59;;;;;;;13.00;9.65;;;;;;;14.07;46.12;99398.30;1686500;83;21635;-60
2022/02/03 00:49:30;;;;;;;14.58;10.28;;;;;;;14.07;45.95;99405.37;1656321;86;21102;-59
2022/02/03 00:52:00;;;;;;;16.37;11.35;;;;;;;14.11;45.88;99399.95;1690047;84;21895;-58
2022/02/03 00:54:30;;;;;;;15.90;11.57;;;;;;;14.27;45.41;99397.95;1690643;84;21588;-58
2022/02/03 00:57:03;;;;;;;17.90;12.20;;;;;;;14.10;45.56;99397.06;1689407;84;21016;-68
2022/02/03 00:59:40;;;;;;;16.93;11.43;;;;;;;14.01;45.73;99397.09;1657265;86;21123;-58
2022/02/03 01:02:11;;;;;;;18.07;12.82;;;;;;;14.00;45.77;99400.73;1650880;86;21608;-58
2022/02/03 01:04:39;;;;;;;20.55;13.15;;;;;;;13.74;46.22;99409.28;1668615;84;21827;-62
2022/02/03 01:07:14;;;;;;;20.17;13.72;;;;;;;13.92;46.02;99414.97;1649668;86;21141;-59
2022/02/03 01:09:49;;;;;;;23.15;14.87;;;;;;;13.91;46.03;99424.38;1652077;86;21517;-58
2022/02/03 01:12:22;;;;;;;20.27;13.90;;;;;;;14.04;45.65;99417.09;1616428;88;21021;-58
2022/02/03 01:14:50;;;;;;;20.25;15.08;;;;;;;14.07;45.61;99411.41;1647644;86;21510;-59
2022/02/03 01:17:27;;;;;;;22.77;16.25;;;;;;;14.13;45.43;99420.20;1646261;86;21206;-66
2022/02/03 01:33:51;;;;;;;53.23;30.43;;;;;;;14.89;43.87;99417.66;1661726;84;21027;-58
2022/02/03 01:44:43;;;;;;;58.83;32.58;;;;;;;14.45;44.65;99415.92;1686736;84;21549;-60
2022/02/03 01:47:07;;;;;;;51.13;32.23;;;;;;;14.34;44.63;99411.75;1683107;84;21574;-70
2022/02/03 01:51:58;;;;;;;42.40;27.20;;;;;;;14.30;44.87;99419.00;1673141;84;21094;-70
2022/02/03 01:54:29;;;;;;;38.90;26.12;;;;;;;14.37;44.83;99421.00;1686546;84;21051;-60
2022/02/03 01:57:00;;;;;;;38.40;25.37;;;;;;;14.40;44.82;99419.75;1686418;84;21122;-64
2022/02/03 01:59:27;;;;;;;36.98;25.23;;;;;;;14.42;44.60;99423.72;1684187;84;21367;-59
2022/02/03 02:02:02;;;;;;;33.80;21.07;;;;;;;14.53;44.44;99417.70;1682867;84;21496;-70
2022/02/03 02:04:43;;;;;;;27.48;20.05;;;;;;;14.26;44.83;99422.59;1683768;84;21413;-58
2022/02/03 02:07:27;;;;;;;34.23;23.22;;;;;;;14.24;44.93;99425.94;1656324;86;21176;-59
2022/02/03 02:11:01;;;;;;;26.68;18.87;;;;;;;14.46;44.55;99424.86;1690048;84;21204;-59
2022/02/03 02:13:31;;;;;;;21.23;16.07;;;;;;;14.17;44.71;99427.06;1679980;84;21206;-60
2022/02/03 02:38:14;;;;;;;19.73;12.82;;;;;;;14.17;44.94;99407.41;1689841;84;21147;-60
2022/02/03 02:44:04;;;;;;;25.43;17.07;;;;;;;14.11;44.76;99404.68;1683965;85;21075;-59
2022/02/03 02:46:45;;;;;;;24.75;17.42;;;;;;;14.26;44.58;99400.82;1682815;85;21161;-65
2022/02/03 02:49:37;;;;;;;24.45;16.23;;;;;;;14.16;44.64;99397.44;1683600;85;21087;-58
2022/02/03 02:52:12;;;;;;;24.43;16.80;;;;;;;14.03;44.68;99397.67;1656444;86;21849;-65
2022/02/03 02:58:07;;;;;;;26.17;17.10;;;;;;;14.05;44.89;99400.84;1690122;84;21011;-58
2022/02/03 03:36:13;;;;;;;25.23;17.67;;;;;;;14.26;44.21;99404.75;1657996;86;21051;-61
2022/02/03 03:38:27;;;;;;;26.12;17.48;;;;;;;14.33;43.87;99398.89;1639563;86;21313;-63
2022/02/03 03:40:55;;;;;;;26.60;17.37;;;;;;;14.34;43.81;99400.47;1647149;86;21026;-60
2022/02/03 03:43:31;;;;;;;24.55;18.02;;;;;;;14.24;44.00;99398.92;1660687;86;21168;-61
2022/02/03 03:46:01;;;;;;;25.77;17.23;;;;;;;14.22;44.09;99399.69;1647753;86;21165;-71
2022/02/03 03:48:34;;;;;;;24.40;16.85;;;;;;;14.04;44.46;99407.13;1650673;86;21036;-60
2022/02/03 03:51:03;;;;;;;21.20;15.13;;;;;;;14.11;44.45;99407.82;1645881;86;20958;-59
2022/02/03 03:53:38;;;;;;;22.40;15.13;;;;;;;14.17;44.37;99406.92;1658438;86;21631;-60
2022/02/03 03:56:06;;;;;;;20.95;15.23;;;;;;;14.26;44.02;99412.62;1648169;86;21105;-59
2022/02/03 03:58:51;;;;;;;23.45;15.38;;;;;;;14.13;44.19;99411.02;1629863;86;21192;-60
2022/02/03 04:32:04;;;;;;;18.25;12.98;;;;;;;14.53;43.44;99424.27;1666500;84;21074;-57
2022/02/03 04:37:05;;;;;;;16.70;12.28;;;;;;;14.45;43.44;99431.14;1724065;82;20958;-59
2022/02/03 05:09:37;;;;;;;18.77;13.90;;;;;;;14.43;44.14;99469.09;1712847;83;21482;-68
2022/02/03 05:12:30;;;;;;;17.20;12.18;;;;;;;14.44;44.06;99469.41;1708315;83;21252;-58
2022/02/03 05:22:23;;;;;;;20.27;14.23;;;;;;;14.35;44.26;99483.34;1677047;85;20969;-57
2022/02/03 05:42:38;;;;;;;15.83;11.83;;;;;;;14.56;44.08;99485.45;1725379;82;21131;-59
2022/02/03 05:51:10;;;;;;;13.38;9.80;;;;;;;14.87;43.93;99487.95;1712751;82;21067;-60
2022/02/03 06:04:17;;;;;;;15.95;11.90;;;;;;;14.80;43.73;99486.23;1714114;82;21631;-62
2022/02/03 06:07:05;;;;;;;22.87;16.75;;;;;;;14.94;43.57;99480.76;1709765;82;21202;-60
2022/02/03 06:14:24;;;;;;;38.33;27.07;;;;;;;14.96;43.23;99483.41;1731432;80;21057;-58
2022/02/03 06:27:36;;;;;;;18.23;13.40;;;;;;;15.55;42.70;99484.59;1713750;82;21027;-60
2022/02/03 06:29:56;;;;;;;19.52;14.80;;;;;;;15.61;42.59;99481.05;1707707;82;21047;-64
2022/02/03 06:32:24;;;;;;;19.10;13.62;;;;;;;15.73;42.20;99483.13;1706352;82;21058;-65
2022/02/03 06:34:50;;;;;;;15.35;12.10;;;;;;;15.66;42.15;99475.91;1710495;82;22651;-60
2022/02/03 06:37:19;;;;;;;15.32;12.03;;;;;;;15.87;41.85;99471.00;1665353;84;21026;-66
2022/02/03 06:39:45;;;;;;;14.98;10.90;;;;;;;15.84;41.79;99480.69;1720787;82;21066;-60
2022/02/03 06:42:12;;;;;;;16.52;11.95;;;;;;;15.99;41.50;99474.38;1719554;82;21059;-62
2022/02/03 06:44:44;;;;;;;15.43;12.37;;;;;;;15.94;41.54;99480.33;1725076;80;21474;-60
2022/02/03 06:47:23;;;;;;;17.00;13.58;;;;;;;15.86;41.52;99487.28;1720511;82;21179;-65
2022/02/03 06:52:23;;;;;;;14.65;10.75;;;;;;;15.99;41.52;99482.27;1707055;83;21016;-59
2022/02/03 06:57:25;;;;;;;14.00;10.28;;;;;;;16.08;41.18;99478.72;1666392;84;21074;-59
2022/02/03 06:59:54;;;;;;;12.68;9.73;;;;;;;15.95;41.37;99483.26;1708749;82;21239;-61
2022/02/03 07:02:13;;;;;;;12.90;9.50;;;;;;;16.05;41.32;99479.98;1664835;84;21102;-65
2022/02/03 07:04:44;;;;;;;14.47;10.30;;;;;;;16.06;41.41;99489.45;1708667;82;21527;-59
2022/02/03 07:07:08;;;;;;;13.50;10.23;;;;;;;16.16;41.59;99491.47;1705730;82;21134;-62
2022/02/03 07:09:35;;;;;;;11.48;8.55;;;;;;;16.52;41.24;99496.27;1708837;82;21055;-59
2022/02/03 07:12:06;;;;;;;13.05;8.73;;;;;;;16.50;41.46;99495.70;1707910;82;21854;-63
2022/02/03 07:14:32;;;;;;;9.95;6.97;;;;;;;16.57;41.64;99494.74;1709761;82;21003;-60
2022/02/03 07:17:02;;;;;;;10.25;7.30;;;;;;;16.93;41.10;99497.37;1708359;82;21135;-60
2022/02/03 07:19:29;;;;;;;9.73;6.40;;;;;;;16.91;40.82;99496.84;1705077;82;21126;-60
2022/02/03 07:21:56;;;;;;;10.65;6.83;;;;;;;17.01;40.59;99492.51;1710596;83;21050;-60
2022/02/03 07:24:23;;;;;;;16.02;9.75;;;;;;;17.12;40.29;99489.48;1703736;83;21122;-66
2022/02/03 07:26:49;;;;;;;12.18;9.78;;;;;;;17.05;40.10;99486.23;1674784;84;21588;-59
2022/02/03 07:29:16;;;;;;;10.78;7.58;;;;;;;17.19;39.66;99492.70;1709551;82;21162;-69
2022/02/03 07:31:42;;;;;;;10.15;7.35;;;;;;;17.13;39.64;99498.18;1673179;84;21126;-60
2022/02/03 07:34:14;;;;;;;9.08;7.53;;;;;;;17.25;39.59;99487.79;1712917;83;20983;-60
2022/02/03 07:36:42;;;;;;;;;;;;;;;17.33;39.57;99483.92;1709179;82;22903;-60
2022/02/03 07:39:08;;;;;;;14.23;9.60;;;;;;;17.41;39.12;99485.33;1707163;82;20539;-59
2022/02/03 07:41:35;;;;;;;15.20;11.80;;;;;;;17.19;38.93;99492.70;1668850;84;21649;-59
2022/02/03 07:44:02;;;;;;;15.10;10.35;;;;;;;17.11;39.20;99493.66;1709351;83;21007;-59
2022/02/03 07:46:34;;;;;;;14.30;9.58;;;;;;;17.06;39.38;99501.51;1664914;84;21116;-66
2022/02/03 07:48:59;;;;;;;11.15;8.53;;;;;;;17.11;39.50;99498.93;1674314;83;21137;-66
2022/02/03 07:51:26;;;;;;;9.25;7.00;;;;;;;17.20;39.42;99494.84;1709056;83;21018;-62
2022/02/03 07:53:53;;;;;;;8.70;6.33;;;;;;;17.27;39.19;99496.75;1705505;82;21094;-60
2022/02/03 07:56:19;;;;;;;10.65;7.12;;;;;;;17.02;39.25;99498.05;1710513;83;21008;-67
2022/02/03 07:58:46;;;;;;;10.50;8.45;;;;;;;16.97;39.60;99494.53;1710559;83;21058;-60
2022/02/03 08:01:13;;;;;;;10.30;7.45;;;;;;;17.12;39.29;99484.72;1710020;82;21142;-61
2022/02/03 08:03:43;;;;;;;10.50;7.62;;;;;;;17.03;39.24;99483.03;1718454;82;21412;-64
2022/02/03 08:06:15;;;;;;;10.03;7.72;;;;;;;16.94;39.37;99487.14;1718866;82;21049;-59
2022/02/03 08:08:43;;;;;;;10.15;7.33;;;;;;;16.87;39.70;99486.52;1712600;82;21060;-63
2022/02/03 08:11:11;;;;;;;10.70;9.15;;;;;;;16.88;39.56;99484.16;1716811;82;21093;-63
2022/02/03 08:13:45;;;;;;;11.25;8.65;;;;;;;16.84;39.33;99483.84;1726631;82;21175;-60
2022/02/03 08:18:32;;;;;;;12.25;9.30;;;;;;;16.45;39.70;99474.58;1724456;81;20986;-62
2022/02/03 08:21:04;;;;;;;11.35;9.10;;;;;;;16.46;39.64;99464.86;1727392;81;21042;-64
2022/02/03 08:26:09;;;;;;;15.13;11.03;;;;;;;16.69;39.73;99475.70;1731369;81;21097;-61
2022/02/03 08:31:03;;;;;;;13.98;10.38;;;;;;;16.87;39.53;99466.25;1727755;82;21045;-62
2022/02/03 08:33:26;;;;;;;14.53;11.70;;;;;;;17.07;39.38;99463.07;1728097;81;21021;-61
2022/02/03 08:35:55;;;;;;;17.42;13.98;;;;;;;17.01;39.48;99470.66;1729413;81;21045;-67
2022/02/03 08:39:10;;;;;;;19.75;15.53;;;;;;;17.10;39.57;99465.75;1720665;81;21782;-62
2022/02/03 08:43:21;;;;;;;22.70;18.05;;;;;;;17.29;39.33;99467.02;1718650;81;21054;-61
2022/02/03 08:45:47;;;;;;;20.72;16.02;;;;;;;17.29;39.22;99453.86;1723505;81;22488;-61
2022/02/03 08:48:15;;;;;;;22.70;18.98;;;;;;;17.50;39.22;99465.39;1728840;81;20999;-64
2022/02/03 08:50:42;;;;;;;21.52;16.55;;;;;;;17.64;38.82;99473.19;1729300;81;21122;-62
2022/02/03 09:34:44;;;;;;;20.17;13.33;;;;;;;18.49;37.45;99452.31;1734034;81;21704;-63
2022/02/03 10:01:25;;;;;;;16.03;10.77;;;;;;;18.39;36.92;99427.16;1730249;82;21183;-64
2022/02/03 10:03:15;;;;;;;12.83;8.17;;;;;;;18.31;37.53;99438.20;1710233;82;21361;-62
2022/02/03 10:06:11;;;;;;;11.00;6.12;;;;;;;18.34;37.68;99446.41;1720998;82;21175;-65
2022/02/03 10:08:26;;;;;;;8.73;5.47;;;;;;;18.50;37.06;99440.69;1707885;83;21094;-64
2022/02/03 10:11:16;;;;;;;10.63;6.80;;;;;;;18.46;36.86;99444.36;1721083;83;22539;-63
2022/02/03 10:13:50;;;;;;;14.30;9.00;;;;;;;18.54;36.77;99447.58;1723086;82;21360;-64
2022/02/03 10:16:29;;;;;;;13.23;8.87;;;;;;;18.71;36.56;99453.00;1720893;82;21385;-65
2022/02/03 10:19:13;;;;;;;14.87;9.27;;;;;;;18.73;36.52;99454.05;1715216;82;21254;-64
2022/02/03 10:21:40;;;;;;;11.20;8.43;;;;;;;18.74;36.53;99444.28;1710488;82;21127;-65
2022/02/03 10:24:08;;;;;;;11.83;7.93;;;;;;;18.68;36.57;99445.55;1712146;82;22287;-65
2022/02/03 10:26:40;;;;;;;12.70;8.77;;;;;;;18.48;36.62;99445.42;1725208;82;21299;-65
2022/02/03 10:29:13;;;;;;;12.90;7.70;;;;;;;18.55;36.76;99444.67;1680442;83;21413;-64
2022/02/03 10:31:42;;;;;;;12.47;8.90;;;;;;;18.50;36.82;99446.50;1708467;83;21298;-64
2022/02/03 10:34:12;;;;;;;11.23;8.03;;;;;;;18.47;36.94;99439.88;1709397;82;21460;-64
2022/02/03 10:37:07;;;;;;;10.47;6.30;;;;;;;18.55;36.64;99435.44;1714623;82;21650;-64
2022/02/03 10:42:21;;;;;;;8.57;6.20;;;;;;;18.36;36.67;99428.98;1711717;82;21670;-62
2022/02/03 10:47:50;;;;;;;9.33;6.70;;;;;;;18.47;36.74;99428.00;1713494;82;21502;-64
2022/02/03 10:52:51;;;;;;;12.40;6.73;;;;;;;18.46;36.47;99422.46;1682627;84;21540;-64
2022/02/03 11:08:30;;;;;;;9.23;6.60;;;;;;;18.40;37.19;99436.66;1679528;85;22093;-64
2022/02/03 11:10:55;;;;;;;8.98;6.62;;;;;;;18.57;36.84;99434.67;1680800;83;21109;-62
2022/02/03 11:13:20;;;;;;;7.97;5.80;;;;;;;18.59;36.63;99443.64;1684144;85;22489;-64
2022/02/03 11:15:47;;;;;;;9.17;6.90;;;;;;;18.73;36.13;99440.85;1681537;85;21280;-65
2022/02/03 11:18:14;;;;;;;9.10;6.80;;;;;;;18.58;36.22;99434.92;1634489;85;21306;-66
2022/02/03 11:20:43;;;;;;;9.23;5.97;;;;;;;18.53;36.32;99428.31;1661569;85;21806;-64
2022/02/03 11:23:20;;;;;;;8.35;5.08;;;;;;;18.51;36.01;99430.39;1677840;84;21699;-64
2022/02/03 11:28:57;;;;;;;10.95;7.08;;;;;;;17.97;36.80;99429.23;1680687;85;21140;-65
2022/02/03 11:42:30;;;;;;;9.35;6.50;;;;;;;18.52;36.60;99441.22;1655235;85;21271;-67
2022/02/03 11:59:43;;;;;;;13.80;9.10;;;;;;;17.48;37.31;99466.18;1708450;82;21387;-63
2022/02/03 12:02:01;;;;;;;14.05;8.95;;;;;;;17.45;37.52;99460.08;1620299;86;21105;-60
2022/02/03 12:07:50;;;;;;;11.55;8.23;;;;;;;17.43;37.57;99466.14;1722374;80;21100;-66
2022/02/03 12:10:34;;;;;;;10.72;7.78;;;;;;;17.59;37.66;99455.23;1717345;80;21137;-63
2022/02/03 12:13:18;;;;;;;11.75;8.13;;;;;;;17.48;37.72;99461.70;1658425;82;21189;-62
2022/02/03 12:15:48;;;;;;;12.75;9.60;;;;;;;17.35;37.96;99462.10;1709412;81;20987;-62
2022/02/03 12:20:52;;;;;;;13.20;10.20;;;;;;;17.53;37.73;99456.20;1718573;83;21022;-62
2022/02/03 12:26:27;;;;;;;14.53;11.88;;;;;;;17.39;38.04;99467.15;1721775;82;21557;-61
2022/02/03 12:29:00;;;;;;;14.70;11.60;;;;;;;17.48;38.13;99471.45;1720552;81;22113;-62
2022/02/03 12:37:06;;;;;;;12.85;8.83;;;;;;;17.20;38.38;99474.57;1720112;82;21174;-62
2022/02/03 12:39:49;;;;;;;15.48;10.78;;;;;;;17.33;38.17;99471.28;1717675;82;21002;-64
2022/02/03 12:44:47;;;;;;;10.70;7.90;;;;;;;17.24;38.23;99492.00;1699316;81;21090;-66
2022/02/03 12:47:14;;;;;;;12.80;8.95;;;;;;;17.02;38.37;99484.88;1720777;82;21038;-62
2022/02/03 12:49:41;;;;;;;20.48;14.25;;;;;;;16.93;38.32;99489.47;1722740;82;21113;-62
2022/02/03 12:52:27;;;;;;;12.93;9.50;;;;;;;16.61;38.75;99492.70;1718026;82;21171;-64
2022/02/03 12:54:55;;;;;;;14.25;10.30;;;;;;;16.93;38.43;99486.84;1722670;82;21552;-61
2022/02/03 12:57:34;;;;;;;28.50;19.35;;;;;;;16.68;38.81;99489.39;1721484;81;22380;-61
2022/02/03 13:00:19;;;;;;;49.88;35.63;;;;;;;16.34;39.24;99485.98;1721969;82;21505;-64
2022/02/03 13:02:58;;;;;;;29.50;19.70;;;;;;;16.48;39.38;99486.47;1717064;82;21126;-63
2022/02/03 13:05:28;;;;;;;17.95;12.65;;;;;;;16.73;39.10;99478.13;1722119;81;20995;-62
2022/02/03 13:07:58;;;;;;;16.90;11.03;;;;;;;16.86;38.95;99475.69;1720930;82;21535;-63
2022/02/03 13:10:28;;;;;;;15.13;10.70;;;;;;;16.85;39.01;99472.79;1723706;81;21104;-59
2022/02/03 13:13:04;;;;;;;13.15;9.03;;;;;;;17.14;38.57;99477.38;1725614;82;21563;-62
2022/02/03 13:15:38;;;;;;;10.18;7.50;;;;;;;17.13;38.43;99478.43;1680479;82;21300;-65
2022/02/03 13:18:10;;;;;;;10.68;8.08;;;;;;;17.08;38.38;99480.45;1728222;81;21085;-62
2022/02/03 13:20:41;;;;;;;10.88;9.43;;;;;;;17.06;38.37;99478.60;1728455;81;21046;-62
2022/02/03 13:23:05;;;;;;;13.55;10.53;;;;;;;17.03;38.40;99476.45;1728423;81;21018;-62
2022/02/03 13:28:08;;;;;;;13.03;10.58;;;;;;;17.05;38.16;99482.28;1722563;81;21229;-66
2022/02/03 13:30:54;;;;;;;11.35;9.40;;;;;;;16.81;38.45;99479.58;1720758;82;21018;-63
2022/02/03 13:33:24;;;;;;;14.05;9.68;;;;;;;16.88;38.33;99469.67;1717050;82;21042;-62
2022/02/03 13:35:53;;;;;;;15.58;10.38;;;;;;;16.92;38.18;99467.63;1719900;81;21312;-63
2022/02/03 13:38:28;;;;;;;15.18;11.20;;;;;;;16.93;38.10;99462.66;1720353;82;21047;-62
2022/02/03 13:41:18;;;;;;;18.02;11.73;;;;;;;16.90;38.18;99461.03;1718425;82;21165;-67
2022/02/03 13:43:46;;;;;;;14.73;10.20;;;;;;;16.56;38.70;99465.53;1695333;82;38744;-62
2022/02/03 13:46:25;;;;;;;16.10;10.95;;;;;;;16.47;38.71;99465.13;1720696;82;21138;-62
2022/02/03 13:48:51;;;;;;;15.80;10.93;;;;;;;16.18;39.03;99467.86;1721430;82;21010;-65
2022/02/03 13:51:18;;;;;;;13.72;10.03;;;;;;;16.18;39.08;99474.44;1721456;82;21418;-62
2022/02/03 13:53:59;;;;;;;13.78;10.38;;;;;;;16.29;38.97;99478.82;1722281;81;21113;-63
2022/02/03 14:11:15;;;;;;;27.75;19.20;;;;;;;15.96;39.79;99473.53;1709197;82;21010;-64
2022/02/03 14:18:59;;;;;;;20.10;12.93;;;;;;;15.61;40.18;99482.36;1663651;84;21027;-65
2022/02/03 14:21:09;;;;;;;13.35;9.35;;;;;;;15.57;40.36;99487.28;1684165;83;21190;-68
2022/02/03 14:29:13;;;;;;;11.00;6.45;;;;;;;15.48;40.65;99491.30;1664795;85;21567;-65
2022/02/03 14:31:37;;;;;;;21.37;13.13;;;;;;;15.60;40.40;99487.31;1707345;83;21091;-65
2022/02/03 14:34:10;;;;;;;17.35;11.38;;;;;;;15.58;40.39;99483.61;1709627;82;22304;-65
2022/02/03 14:36:34;;;;;;;18.12;12.33;;;;;;;15.54;40.44;99490.89;1701028;83;21128;-65
2022/02/03 14:41:38;;;;;;;29.07;18.02;;;;;;;15.31;40.83;99499.12;1704898;83;21012;-63
2022/02/03 14:44:04;;;;;;;40.45;26.82;;;;;;;15.18;40.94;99498.05;1662231;84;20988;-63
2022/02/03 14:46:31;;;;;;;29.10;20.05;;;;;;;15.35;40.81;99488.16;1709160;83;22738;-61
2022/02/03 14:48:59;;;;;;;36.28;26.02;;;;;;;15.26;40.80;99493.75;1664980;84;21567;-64
2022/02/03 14:51:33;;;;;;;36.25;25.48;;;;;;;15.17;41.11;99497.78;1705133;83;21003;-64
2022/02/03 14:59:15;;;;;;;14.07;9.45;;;;;;;15.08;41.36;99497.86;1708413;83;21168;-67
2022/02/03 15:01:42;;;;;;;14.85;9.38;;;;;;;15.16;41.38;99487.52;1698330;83;21169;-63
2022/02/03 15:04:12;;;;;;;12.98;9.85;;;;;;;14.98;41.57;99489.77;1700023;82;21435;-63
2022/02/03 15:06:43;;;;;;;12.63;9.25;;;;;;;14.95;41.79;99487.59;1723153;82;20966;-64
2022/02/03 15:09:19;;;;;;;10.58;7.92;;;;;;;14.67;41.97;99491.72;1717266;82;21069;-63
2022/02/03 15:14:24;;;;;;;8.45;6.30;;;;;;;14.81;41.88;99498.34;1722686;82;21563;-63
2022/02/03 15:16:50;;;;;;;9.28;6.30;;;;;;;14.76;41.88;99492.97;1721996;82;21063;-62
2022/02/03 15:19:16;;;;;;;11.03;7.62;;;;;;;14.93;41.65;99497.54;1721070;82;21509;-62
2022/02/03 15:21:43;;;;;;;10.03;6.40;;;;;;;14.83;41.68;99493.65;1726384;82;21132;-61
2022/02/03 15:24:11;;;;;;;10.20;6.80;;;;;;;14.87;41.80;99499.75;1721536;82;21527;-62
2022/02/03 15:26:39;;;;;;;9.63;5.72;;;;;;;14.79;41.77;99497.76;1720242;82;21400;-61
2022/02/03 15:29:06;;;;;;;10.95;7.00;;;;;;;14.75;41.84;99491.37;1722930;81;21070;-65
2022/02/03 15:31:33;;;;;;;10.72;6.70;;;;;;;14.63;42.14;99489.80;1719807;82;21146;-61
2022/02/03 15:34:08;;;;;;;20.80;15.30;;;;;;;14.78;42.03;99491.44;1722031;82;21196;-61
2022/02/03 15:36:34;;;;;;;13.25;8.88;;;;;;;14.86;41.91;99497.66;1721085;81;22377;-62
2022/02/03 15:39:07;;;;;;;13.38;9.10;;;;;;;14.91;41.96;99504.31;1722123;82;22111;-65
2022/02/03 15:41:31;;;;;;;9.88;7.12;;;;;;;14.98;41.80;99508.92;1719043;82;21015;-62
2022/02/03 15:44:00;;;;;;;11.50;6.72;;;;;;;15.16;41.59;99519.02;1722856;82;21522;-63
2022/02/03 15:46:28;;;;;;;11.18;6.85;;;;;;;15.18;41.51;99520.88;1722920;82;21313;-61
2022/02/03 15:49:04;;;;;;;9.83;6.40;;;;;;;15.02;41.70;99515.31;1718824;82;22184;-62
2022/02/03 15:56:17;;;;;;;11.50;7.37;;;;;;;15.01;41.55;99511.62;1717852;81;22157;-63
2022/02/03 15:56:56;;;;;;;9.03;6.45;;;;;;;15.00;41.70;99524.44;1722727;81;21090;-60
2022/02/03 16:02:26;;;;;;;9.23;6.28;;;;;;;14.88;41.98;99521.03;1720655;81;21239;-64
2022/02/03 16:18:22;;;;;;;11.33;7.80;;;;;;;15.13;41.68;99529.98;1690957;82;22477;-63
2022/02/03 16:21:40;;;;;;;11.03;7.83;;;;;;;14.98;41.91;99532.55;1715786;82;21102;-63
2022/02/03 16:52:53;;;;;;;11.48;7.62;;;;;;;14.99;42.02;99541.22;1706814;83;21106;-61
2022/02/03 16:55:23;;;;;;;10.98;8.08;;;;;;;15.06;41.73;99545.32;1715146;82;21127;-65
2022/02/03 16:57:50;;;;;;;10.60;7.70;;;;;;;14.92;41.88;99545.78;1713471;82;21129;-66
2022/02/03 17:00:18;;;;;;;11.15;7.90;;;;;;;14.80;42.04;99541.84;1709266;82;21904;-62
2022/02/03 17:02:45;;;;;;;10.68;7.40;;;;;;;14.83;42.02;99536.94;1711556;82;21581;-62
2022/02/03 17:05:13;;;;;;;12.47;7.78;;;;;;;14.87;42.05;99536.49;1705695;82;21529;-63
2022/02/03 17:07:39;;;;;;;10.23;7.30;;;;;;;15.02;41.84;99539.45;1706585;83;21169;-62
2022/02/03 17:10:08;;;;;;;11.75;7.87;;;;;;;14.96;41.91;99546.92;1701898;83;21026;-66
2022/02/03 17:12:35;;;;;;;10.60;7.37;;;;;;;14.94;41.83;99535.87;1711324;82;21094;-62
2022/02/03 17:15:03;;;;;;;11.73;8.03;;;;;;;15.01;41.79;99532.61;1708359;83;21575;-65
2022/02/03 17:17:30;;;;;;;12.05;8.68;;;;;;;14.96;41.80;99535.91;1700549;82;21603;-60
2022/02/03 17:19:57;;;;;;;11.00;7.65;;;;;;;14.88;41.92;99534.14;1701955;82;21149;-61
2022/02/03 17:22:35;;;;;;;11.22;7.42;;;;;;;14.93;41.87;99538.21;1704431;82;21359;-63
2022/02/03 17:25:15;;;;;;;12.85;8.53;;;;;;;14.98;41.83;99537.80;1697513;82;21343;-60
2022/02/03 17:27:47;;;;;;;12.20;8.50;;;;;;;15.04;41.83;99536.89;1705411;82;21095;-62
2022/02/03 17:30:20;;;;;;;12.25;8.63;;;;;;;15.14;41.61;99536.81;1707353;82;21734;-60
2022/02/03 18:02:54;;;;;;;12.13;9.08;;;;;;;14.91;42.44;99525.82;1674739;82;21193;-63
2022/02/03 18:05:52;;;;;;;11.43;7.03;;;;;;;15.38;41.63;99529.20;1716843;82;21149;-60
2022/02/03 18:10:09;;;;;;;10.93;6.92;;;;;;;15.71;40.99;99525.11;1673978;80;21150;-66
2022/02/03 18:50:31;;;;;;;7.92;5.22;;;;;;;15.37;41.02;99506.56;1714440;82;21755;-63
2022/02/03 18:53:03;;;;;;;6.45;4.67;;;;;;;15.23;41.25;99509.19;1710902;83;21319;-65
2022/02/03 18:55:34;;;;;;;7.17;5.33;;;;;;;15.28;41.16;99507.98;1708248;82;20983;-61
2022/02/03 19:03:24;;;;;;;6.55;4.37;;;;;;;15.38;41.02;99504.73;1673362;84;21194;-62
2022/02/03 19:27:51;;;;;;;7.95;5.12;;;;;;;15.04;41.68;99500.14;1699018;84;22434;-61
2022/02/03 20:10:52;;;;;;;7.25;4.85;;;;;;;15.78;40.57;99513.43;1670611;82;21046;-62
2022/02/03 20:13:18;;;;;;;7.00;4.58;;;;;;;15.91;40.30;99517.62;1719935;82;21149;-61
2022/02/03 20:15:47;;;;;;;5.50;4.03;;;;;;;15.86;40.41;99512.77;1672257;85;20995;-62
2022/02/03 20:18:17;;;;;;;6.10;4.40;;;;;;;15.93;40.23;99516.06;1649425;85;21008;-67
2022/02/03 20:20:43;;;;;;;6.58;4.80;;;;;;;15.93;40.14;99515.54;1684476;84;21511;-60
2022/02/03 20:23:15;;;;;;;6.87;4.85;;;;;;;15.75;40.46;99517.83;1666868;85;21126;-62
2022/02/03 20:25:45;;;;;;;7.35;5.62;;;;;;;15.78;40.60;99520.52;1701321;83;21164;-63
2022/02/03 20:28:12;;;;;;;7.15;4.97;;;;;;;15.71;40.52;99521.17;1721863;82;21380;-66
2022/02/03 20:30:38;;;;;;;7.20;5.85;;;;;;;15.71;40.48;99520.66;1709526;82;21533;-61
2022/02/03 20:33:05;;;;;;;7.60;5.60;;;;;;;15.93;40.20;99516.06;1677991;84;21452;-61
2022/02/03 20:35:32;;;;;;;7.20;5.50;;;;;;;15.95;40.06;99515.32;1715934;83;21070;-66
2022/02/03 20:38:00;;;;;;;6.90;5.15;;;;;;;15.94;40.07;99512.39;1680091;84;21272;-63
2022/02/03 20:40:26;;;;;;;8.10;5.50;;;;;;;15.82;40.24;99504.56;1721467;81;21154;-66
2022/02/03 20:42:53;;;;;;;7.85;5.60;;;;;;;15.96;40.04;99507.19;1695266;84;21082;-62
2022/02/03 20:45:19;;;;;;;8.65;6.03;;;;;;;16.08;39.82;99508.95;1722088;81;20931;-60
2022/02/03 20:47:46;;;;;;;10.38;7.25;;;;;;;16.16;39.56;99507.25;1692626;84;21022;-69
2022/02/03 20:50:19;;;;;;;9.78;6.87;;;;;;;16.11;39.59;99502.71;1718802;83;21278;-62
2022/02/03 20:52:43;;;;;;;9.18;6.20;;;;;;;16.03;39.69;99493.91;1698355;84;29175;-61
2022/02/03 20:55:10;;;;;;;10.13;6.78;;;;;;;16.10;39.63;99489.78;1722183;83;21078;-62
2022/02/03 20:57:37;;;;;;;10.13;7.60;;;;;;;15.86;39.77;99494.38;1700272;83;21032;-60
2022/02/03 21:05:16;;;;;;;7.97;6.08;;;;;;;15.45;40.49;99512.77;1721141;83;21002;-61
2022/02/03 21:07:48;;;;;;;8.60;6.08;;;;;;;15.52;40.41;99522.63;1685379;84;21036;-68
2022/02/03 21:10:21;;;;;;;9.98;6.97;;;;;;;15.41;40.60;99523.45;1693031;83;21092;-64
2022/02/03 21:12:47;;;;;;;8.98;6.33;;;;;;;15.70;40.20;99524.32;1691900;84;21737;-60
2022/02/03 21:15:22;;;;;;;10.48;6.90;;;;;;;15.80;40.07;99527.14;1690357;83;21464;-60
2022/02/03 21:17:44;;;;;;;10.50;7.33;;;;;;;16.06;39.85;99526.27;1691117;83;21092;-61
2022/02/03 21:20:14;;;;;;;8.60;6.45;;;;;;;15.79;40.23;99524.22;1692473;83;21350;-60
2022/02/03 21:22:39;;;;;;;8.88;6.17;;;;;;;15.85;40.14;99536.16;1682091;83;20964;-61
2022/02/03 21:25:18;;;;;;;7.92;5.97;;;;;;;15.77;40.10;99528.92;1685591;83;21590;-60
2022/02/03 21:27:39;;;;;;;8.10;6.10;;;;;;;15.96;39.91;99528.73;1681628;83;21192;-62
2022/02/03 21:30:08;;;;;;;8.30;6.37;;;;;;;15.89;39.97;99528.87;1680843;84;21314;-61
2022/02/03 21:32:37;;;;;;;9.25;6.08;;;;;;;15.60;40.39;99533.28;1691684;83;21021;-61
2022/02/03 21:35:06;;;;;;;9.68;6.67;;;;;;;15.39;41.02;99536.55;1686465;83;21059;-61
2022/02/03 21:37:33;;;;;;;9.05;6.10;;;;;;;15.58;40.62;99535.36;1680379;83;21069;-66
2022/02/03 21:40:00;;;;;;;9.48;6.87;;;;;;;15.57;40.65;99531.14;1735729;80;22136;-69
2022/02/03 21:42:27;;;;;;;12.50;9.03;;;;;;;15.56;40.62;99533.47;1736599;80;21036;-61
2022/02/03 21:44:53;;;;;;;10.63;7.72;;;;;;;15.71;40.48;99538.25;1733493;80;21505;-61
2022/02/03 21:47:19;;;;;;;11.28;8.33;;;;;;;15.82;40.34;99542.67;1692089;83;21093;-61
2022/02/03 21:49:46;;;;;;;13.85;9.70;;;;;;;15.93;40.16;99539.19;1686025;83;21039;-62
2022/02/03 21:52:19;;;;;;;10.95;7.95;;;;;;;16.00;39.97;99536.42;1690050;83;21154;-66
2022/02/03 21:54:41;;;;;;;14.80;10.53;;;;;;;16.12;39.84;99546.88;1692153;83;21701;-60
2022/02/03 21:57:09;;;;;;;13.85;10.90;;;;;;;16.01;39.99;99546.70;1664511;84;21044;-60
2022/02/03 21:59:36;;;;;;;16.73;11.50;;;;;;;16.21;39.74;99543.65;1691831;83;21030;-61
2022/02/03 22:02:06;;;;;;;18.02;12.15;;;;;;;15.97;39.96;99542.95;1687847;81;68059;-66